Time;durP1;ratioP1;P1;durP2;ratioP2;P2;SDS_P1;SDS_P2;PMS_P1;PMS_P2;Temp;Humidity;BMP_temperature;BMP_pressure;BME280_temperature;BME280_humidity;BME280_pressure;Samples;Min_cycle;Max_cycle;Signal;HPM_P1;HPM_P2
2023/12/01 00:00:27;;;;;;;73.60;47.60;;;;;;;-0.68;80.31;98799.46;102088;1250;1003566;-66
2023/12/01 00:03:15;;;;;;;76.20;47.30;;;;;;;-0.73;80.24;98801.72;103443;1251;96630;-66
2023/12/01 00:05:43;;;;;;;73.00;43.80;;;;;;;-0.81;80.27;98801.63;104274;1251;137687;-65
2023/12/01 00:08:10;;;;;;;74.20;45.10;;;;;;;-0.88;80.54;98804.09;102894;1251;1002532;-65
2023/12/01 00:10:37;;;;;;;70.80;42.00;;;;;;;-0.92;80.78;98803.59;103577;1250;139634;-66
2023/12/01 00:13:05;;;;;;;70.60;42.70;;;;;;;-0.93;80.81;98801.56;104707;1251;106804;-67
2023/12/01 00:15:32;;;;;;;70.10;44.20;;;;;;;-0.89;81.07;98802.57;103755;1251;96450;-65
2023/12/01 00:18:00;;;;;;;75.40;46.20;;;;;;;-0.87;81.15;98798.62;101955;1254;1003716;-66
2023/12/01 00:20:28;;;;;;;78.00;46.90;;;;;;;-0.83;80.93;98799.95;104159;1251;106969;-64
2023/12/01 00:22:55;;;;;;;75.20;47.10;;;;;;;-0.79;80.98;98801.95;103460;1251;137592;-65
2023/12/01 00:25:23;;;;;;;76.20;46.80;;;;;;;-0.78;80.82;98809.61;104489;1251;107623;-67
2023/12/01 00:27:50;;;;;;;77.40;48.10;;;;;;;-0.80;80.79;98809.46;103848;1254;96886;-65
2023/12/01 00:30:18;;;;;;;76.90;47.90;;;;;;;-0.79;80.76;98818.68;103839;1254;109266;-65
2023/12/01 00:32:46;;;;;;;77.30;47.70;;;;;;;-0.84;80.59;98810.70;103973;1251;1003742;-67
2023/12/01 00:35:14;;;;;;;77.40;44.60;;;;;;;-0.89;80.56;98806.15;103371;1253;1003146;-67
2023/12/01 00:37:41;;;;;;;72.60;43.90;;;;;;;-0.94;80.47;98811.30;103208;1250;1003473;-66
2023/12/01 00:40:11;;;;;;;69.90;43.10;;;;;;;-0.99;80.54;98813.73;103405;1251;139226;-65
2023/12/01 00:42:40;;;;;;;67.20;43.90;;;;;;;-1.01;80.77;98817.34;103814;1251;110157;-65
2023/12/01 00:45:09;;;;;;;72.70;44.90;;;;;;;-1.01;80.91;98819.89;104563;1251;108393;-66
2023/12/01 00:47:36;;;;;;;73.70;45.40;;;;;;;-1.01;80.69;98819.05;103651;1250;138184;-66
2023/12/01 00:50:05;;;;;;;70.00;43.70;;;;;;;-1.03;80.69;98821.96;103532;1254;108167;-66
2023/12/01 00:52:33;;;;;;;69.00;43.50;;;;;;;-1.05;80.70;98825.40;104855;1251;138372;-66
2023/12/01 00:55:01;;;;;;;70.80;43.40;;;;;;;-1.07;80.54;98824.90;102472;1251;1016099;-65
2023/12/01 00:57:28;;;;;;;66.00;42.10;;;;;;;-1.08;80.57;98823.88;103523;1251;106943;-66
2023/12/01 00:59:57;;;;;;;72.50;44.10;;;;;;;-1.10;80.54;98815.70;104071;1251;139107;-66
2023/12/01 01:02:25;;;;;;;66.10;40.50;;;;;;;-1.14;80.52;98823.23;103562;1251;107824;-66
2023/12/01 01:04:53;;;;;;;64.90;39.80;;;;;;;-1.18;80.53;98826.52;103730;1251;138814;-66
2023/12/01 01:07:21;;;;;;;63.50;37.60;;;;;;;-1.18;80.73;98830.28;103916;1251;108810;-66
2023/12/01 01:09:48;;;;;;;62.30;38.80;;;;;;;-1.15;80.76;98827.17;103901;1251;107856;-66
2023/12/01 01:12:16;;;;;;;66.30;41.10;;;;;;;-1.10;80.83;98825.42;104288;1250;139972;-66
2023/12/01 01:14:43;;;;;;;68.90;42.30;;;;;;;-1.03;80.73;98823.34;103540;1254;108002;-67
2023/12/01 01:17:11;;;;;;;66.90;42.00;;;;;;;-0.98;80.81;98816.13;104578;1250;137695;-66
2023/12/01 01:19:38;;;;;;;66.20;42.60;;;;;;;-0.93;80.68;98811.11;103602;1254;110651;-66
2023/12/01 01:22:06;;;;;;;75.40;45.00;;;;;;;-0.90;80.84;98808.20;103372;1254;137831;-66
2023/12/01 01:24:32;;;;;;;73.50;45.70;;;;;;;-0.83;80.57;98813.26;103974;1250;96394;-66
2023/12/01 01:26:59;;;;;;;71.70;44.30;;;;;;;-0.82;80.45;98807.79;103575;1251;107178;-65
2023/12/01 01:29:26;;;;;;;74.30;44.50;;;;;;;-0.86;80.30;98803.55;103663;1251;137714;-66
2023/12/01 01:31:53;;;;;;;69.80;44.90;;;;;;;-0.88;80.27;98802.39;102751;1251;1002876;-65
2023/12/01 01:34:20;;;;;;;68.70;41.00;;;;;;;-0.89;80.37;98802.23;103438;1251;138777;-64
2023/12/01 01:36:49;;;;;;;66.40;41.50;;;;;;;-0.91;80.34;98797.10;102765;1251;1004027;-65
2023/12/01 01:39:16;;;;;;;67.50;39.30;;;;;;;-0.92;80.40;98791.98;103491;1250;107777;-65
2023/12/01 01:41:44;;;;;;;61.70;38.60;;;;;;;-0.91;80.46;98797.27;103591;1251;138439;-65
2023/12/01 01:44:11;;;;;;;64.40;40.00;;;;;;;-0.88;80.34;98799.83;104100;1251;110056;-67
2023/12/01 01:46:38;;;;;;;67.80;41.30;;;;;;;-0.86;80.27;98798.79;102793;1250;1003534;-66
2023/12/01 01:49:06;;;;;;;64.00;40.30;;;;;;;-0.82;80.30;98801.30;103658;1250;96417;-66
2023/12/01 01:51:34;;;;;;;68.80;42.40;;;;;;;-0.79;80.27;98800.92;103658;1254;107789;-66
2023/12/01 01:54:02;;;;;;;64.80;41.80;;;;;;;-0.77;80.14;98802.61;103470;1250;137714;-65
2023/12/01 01:56:32;;;;;;;66.30;41.50;;;;;;;-0.79;80.27;98802.13;104096;1251;111254;-65
2023/12/01 01:58:59;;;;;;;69.60;44.90;;;;;;;-0.75;80.16;98804.47;103480;1253;138190;-66
2023/12/01 02:01:26;;;;;;;78.90;47.90;;;;;;;-0.76;79.87;98800.73;103583;1251;96475;-66
2023/12/01 02:03:53;;;;;;;75.70;45.50;;;;;;;-0.78;80.00;98801.42;102830;1251;1002835;-65
2023/12/01 02:06:30;;;;;;;70.30;42.10;;;;;;;-0.85;79.75;98801.84;103501;1251;96501;-65
2023/12/01 02:08:58;;;;;;;65.00;40.00;;;;;;;-0.92;79.70;98799.84;102782;1250;1002655;-66
2023/12/01 02:11:26;;;;;;;64.90;39.60;;;;;;;-0.98;79.69;98800.77;103374;1253;139371;-66
2023/12/01 02:13:53;;;;;;;61.20;38.10;;;;;;;-1.01;79.65;98802.84;103536;1250;96348;-67
2023/12/01 02:16:20;;;;;;;65.50;41.30;;;;;;;-1.03;79.75;98803.72;103441;1256;139168;-66
2023/12/01 02:18:48;;;;;;;64.50;42.10;;;;;;;-1.07;79.85;98804.77;103535;1251;96593;-66
2023/12/01 02:21:15;;;;;;;68.60;42.40;;;;;;;-1.06;79.86;98806.48;103706;1251;110495;-66
2023/12/01 02:23:44;;;;;;;73.00;45.20;;;;;;;-1.09;79.61;98800.00;102646;1250;1003115;-65
2023/12/01 02:26:12;;;;;;;68.30;43.50;;;;;;;-1.15;79.60;98802.61;102899;1254;1003450;-66
2023/12/01 02:28:39;;;;;;;72.00;46.20;;;;;;;-1.22;79.44;98806.09;102717;1251;1003002;-67
2023/12/01 02:31:06;;;;;;;75.30;47.20;;;;;;;-1.32;79.52;98810.42;103574;1251;96403;-66
2023/12/01 02:33:33;;;;;;;75.80;47.90;;;;;;;-1.43;79.52;98819.20;104965;1250;108963;-66
2023/12/01 02:36:00;;;;;;;72.70;44.20;;;;;;;-1.53;79.59;98820.29;103952;1251;137998;-66
2023/12/01 02:38:27;;;;;;;77.80;44.60;;;;;;;-1.60;79.65;98809.27;102805;1251;1003596;-65
2023/12/01 02:40:54;;;;;;;73.10;43.80;;;;;;;-1.68;79.81;98806.23;102637;1251;1003086;-68
2023/12/01 02:43:21;;;;;;;72.40;43.50;;;;;;;-1.73;79.79;98801.16;103511;1250;96608;-66
2023/12/01 02:45:48;;;;;;;78.10;43.70;;;;;;;-1.77;80.14;98802.38;103495;1251;110232;-66
2023/12/01 02:48:17;;;;;;;74.50;45.20;;;;;;;-1.79;80.02;98800.02;103463;1251;137995;-66
2023/12/01 02:50:45;;;;;;;76.30;45.60;;;;;;;-1.79;80.13;98803.76;103553;1256;96538;-66
2023/12/01 02:53:12;;;;;;;77.60;46.10;;;;;;;-1.80;80.03;98802.05;103474;1254;138711;-66
2023/12/01 02:55:39;;;;;;;75.90;46.70;;;;;;;-1.85;80.00;98803.94;102817;1255;1003298;-66
2023/12/01 02:58:06;;;;;;;80.30;47.50;;;;;;;-1.91;80.17;98799.22;102495;1254;1003098;-66
2023/12/01 03:00:33;;;;;;;77.20;46.90;;;;;;;-1.93;80.00;98802.30;103517;1251;107335;-66
2023/12/01 03:03:01;;;;;;;83.30;49.50;;;;;;;-1.97;80.20;98810.84;102852;1251;1003757;-66
2023/12/01 03:05:28;;;;;;;81.60;48.80;;;;;;;-2.00;80.15;98810.15;102643;1251;1003743;-66
2023/12/01 03:07:54;;;;;;;78.90;47.70;;;;;;;-2.09;80.03;98811.06;103498;1254;97788;-66
2023/12/01 03:10:21;;;;;;;78.80;45.90;;;;;;;-2.16;80.60;98817.89;103299;1251;138637;-66
2023/12/01 03:12:48;;;;;;;76.40;45.80;;;;;;;-2.21;80.35;98821.48;103493;1251;107806;-66
2023/12/01 03:15:19;;;;;;;75.50;45.10;;;;;;;-2.23;80.69;98826.10;102773;1251;1003555;-66
2023/12/01 03:17:47;;;;;;;76.90;44.20;;;;;;;-2.23;80.86;98827.12;102711;1253;1003358;-66
2023/12/01 03:20:15;;;;;;;75.10;43.00;;;;;;;-2.22;81.10;98829.48;102805;1255;1003360;-66
2023/12/01 03:22:43;;;;;;;79.00;45.20;;;;;;;-2.20;81.10;98831.02;103427;1253;138325;-65
2023/12/01 03:25:11;;;;;;;81.00;46.60;;;;;;;-2.20;81.22;98830.16;103533;1251;106846;-65
2023/12/01 03:27:41;;;;;;;79.80;47.90;;;;;;;-2.19;81.11;98830.16;103727;1253;98130;-66
2023/12/01 03:30:14;;;;;;;80.80;46.80;;;;;;;-2.17;81.11;98826.91;103390;1251;137663;-66
2023/12/01 03:32:45;;;;;;;77.10;46.90;;;;;;;-2.18;80.98;98830.49;103222;1251;1003429;-66
2023/12/01 03:35:13;;;;;;;85.00;47.40;;;;;;;-2.20;81.01;98829.82;103457;1255;138796;-66
2023/12/01 03:37:40;;;;;;;83.30;48.40;;;;;;;-2.21;81.08;98836.46;103523;1251;108586;-66
2023/12/01 03:40:12;;;;;;;81.10;48.90;;;;;;;-2.26;80.67;98841.77;103419;1251;138601;-65
2023/12/01 03:42:42;;;;;;;74.60;45.00;;;;;;;-2.33;80.81;98845.20;102886;1256;1003289;-65
2023/12/01 03:45:13;;;;;;;80.80;45.90;;;;;;;-2.39;80.73;98846.06;104064;1251;97838;-66
2023/12/01 03:47:41;;;;;;;78.20;44.70;;;;;;;-2.48;80.75;98846.26;103428;1251;1003092;-65
2023/12/01 03:50:11;;;;;;;77.00;45.90;;;;;;;-2.49;80.83;98850.18;103513;1250;107778;-65
2023/12/01 03:52:41;;;;;;;78.30;47.00;;;;;;;-2.51;80.83;98849.34;103113;1253;1002203;-65
2023/12/01 03:55:09;;;;;;;80.70;49.70;;;;;;;-2.51;81.07;98845.08;102743;1254;1003502;-65
2023/12/01 03:57:36;;;;;;;81.90;50.30;;;;;;;-2.51;81.05;98845.92;103058;1251;1015632;-66
2023/12/01 04:00:08;;;;;;;83.30;49.60;;;;;;;-2.55;80.89;98843.38;102676;1250;1003783;-66
2023/12/01 04:02:41;;;;;;;84.80;49.40;;;;;;;-2.53;80.86;98846.59;103988;1250;106533;-63
2023/12/01 04:05:16;;;;;;;80.40;48.80;;;;;;;-2.53;81.32;98840.48;103497;1250;137814;-65
2023/12/01 04:07:45;;;;;;;81.60;49.30;;;;;;;-2.53;81.31;98846.08;103826;1251;108692;-65
2023/12/01 04:10:12;;;;;;;88.00;50.50;;;;;;;-2.59;81.24;98844.41;103518;1251;138312;-65
2023/12/01 04:12:44;;;;;;;80.00;47.30;;;;;;;-2.66;81.23;98849.87;103580;1250;111204;-65
2023/12/01 04:15:14;;;;;;;77.20;45.20;;;;;;;-2.72;81.02;98850.20;103963;1251;107585;-66
2023/12/01 04:17:42;;;;;;;76.30;44.90;;;;;;;-2.76;81.32;98844.77;103739;1251;138505;-66
2023/12/01 04:20:20;;;;;;;78.80;45.90;;;;;;;-2.78;81.56;98841.71;103600;1251;108572;-65
2023/12/01 04:22:48;;;;;;;76.60;45.30;;;;;;;-2.75;81.83;98831.48;102743;1250;1002433;-65
2023/12/01 04:25:15;;;;;;;76.50;47.10;;;;;;;-2.70;81.68;98830.99;103600;1250;110859;-66
2023/12/01 04:27:42;;;;;;;81.80;47.20;;;;;;;-2.64;81.67;98829.63;103710;1250;1003488;-66
2023/12/01 04:30:14;;;;;;;81.50;49.20;;;;;;;-2.62;81.38;98823.32;103685;1251;138210;-65
2023/12/01 04:32:41;;;;;;;81.40;50.30;;;;;;;-2.61;81.51;98824.33;104564;1250;108093;-66
2023/12/01 04:35:12;;;;;;;78.50;47.70;;;;;;;-2.62;81.23;98818.38;104836;1250;137921;-66
2023/12/01 04:37:39;;;;;;;78.10;48.30;;;;;;;-2.67;80.87;98815.34;104196;1250;1002243;-66
2023/12/01 04:40:14;;;;;;;79.10;47.20;;;;;;;-2.74;80.69;98811.08;104024;1251;138666;-66
2023/12/01 04:42:41;;;;;;;77.50;48.50;;;;;;;-2.85;80.25;98812.30;103665;1250;1002939;-66
2023/12/01 04:45:11;;;;;;;85.20;49.80;;;;;;;-2.94;80.26;98817.23;103840;1250;107155;-65
2023/12/01 04:47:38;;;;;;;85.10;46.40;;;;;;;-3.04;80.28;98818.95;104282;1250;138413;-66
2023/12/01 04:50:12;;;;;;;78.80;44.90;;;;;;;-3.13;80.35;98825.23;103505;1250;111170;-65
2023/12/01 04:52:38;;;;;;;77.40;43.50;;;;;;;-3.17;80.38;98831.88;104513;1250;138764;-66
2023/12/01 04:55:06;;;;;;;72.50;41.90;;;;;;;-3.21;80.39;98831.88;102055;1250;1003469;-64
2023/12/01 04:57:34;;;;;;;77.50;45.50;;;;;;;-3.19;80.64;98836.30;104938;1250;107467;-65
2023/12/01 05:00:00;;;;;;;81.70;46.20;;;;;;;-3.17;80.56;98838.84;103915;1251;137968;-65
2023/12/01 05:02:27;;;;;;;85.20;48.40;;;;;;;-3.16;80.88;98841.23;103846;1250;111139;-64
2023/12/01 05:04:54;;;;;;;90.50;50.60;;;;;;;-3.14;80.68;98845.98;103507;1250;138101;-65
2023/12/01 05:07:21;;;;;;;95.00;50.90;;;;;;;-3.15;80.56;98847.52;104293;1250;97867;-65
2023/12/01 05:09:48;;;;;;;93.80;51.10;;;;;;;-3.19;80.55;98846.67;103982;1250;107898;-64
2023/12/01 05:12:15;;;;;;;98.50;54.20;;;;;;;-3.25;80.28;98844.27;103440;1254;137765;-66
2023/12/01 05:14:41;;;;;;;106.70;58.00;;;;;;;-3.28;80.49;98849.37;103586;1250;110998;-64
2023/12/01 05:17:08;;;;;;;105.40;57.90;;;;;;;-3.33;80.46;98844.62;102732;1254;1003833;-64
2023/12/01 05:19:36;;;;;;;97.20;52.40;;;;;;;-3.34;81.01;98845.13;104285;1250;96968;-65
2023/12/01 05:22:03;;;;;;;98.50;50.80;;;;;;;-3.36;80.98;98842.58;103169;1250;1003692;-65
2023/12/01 05:24:30;;;;;;;87.70;47.50;;;;;;;-3.35;80.86;98843.77;102635;1250;1003720;-65
2023/12/01 05:26:57;;;;;;;84.10;46.80;;;;;;;-3.34;80.96;98846.14;104505;1250;110453;-66
2023/12/01 05:29:24;;;;;;;87.30;48.40;;;;;;;-3.30;80.83;98849.71;103566;1254;138785;-65
2023/12/01 05:31:51;;;;;;;90.10;45.40;;;;;;;-3.29;80.88;98854.64;103275;1250;1003104;-64
2023/12/01 05:34:18;;;;;;;108.70;48.10;;;;;;;-3.28;80.62;98856.17;101910;1251;1002852;-66
2023/12/01 05:36:44;;;;;;;92.20;47.80;;;;;;;-3.31;80.41;98857.36;103851;1254;98045;-66
2023/12/01 05:39:12;;;;;;;102.00;47.50;;;;;;;-3.35;80.56;98856.52;103876;1250;1002594;-66
2023/12/01 05:41:40;;;;;;;91.70;48.50;;;;;;;-3.38;80.69;98857.02;103449;1250;138742;-65
2023/12/01 05:44:07;;;;;;;91.70;49.40;;;;;;;-3.40;80.71;98859.40;103583;1254;97862;-64
2023/12/01 05:46:33;;;;;;;108.30;48.60;;;;;;;-3.43;81.02;98862.09;103507;1250;138149;-65
2023/12/01 05:49:02;;;;;;;90.00;46.70;;;;;;;-3.47;81.03;98869.73;103583;1254;97796;-66
2023/12/01 05:51:29;;;;;;;83.30;44.10;;;;;;;-3.50;81.33;98879.25;102766;1254;1003581;-65
2023/12/01 05:53:56;;;;;;;81.00;44.60;;;;;;;-3.49;81.64;98887.41;103873;1250;138683;-64
2023/12/01 05:56:23;;;;;;;88.50;45.30;;;;;;;-3.46;81.62;98890.80;103622;1254;97679;-64
2023/12/01 05:58:50;;;;;;;83.40;43.40;;;;;;;-3.46;81.74;98898.28;103873;1251;139013;-65
2023/12/01 06:01:18;;;;;;;101.10;48.10;;;;;;;-3.40;81.70;98905.79;103904;1250;97797;-65
2023/12/01 06:03:45;;;;;;;94.80;48.90;;;;;;;-3.34;81.85;98914.30;103781;1250;112085;-64
2023/12/01 06:06:12;;;;;;;100.50;46.80;;;;;;;-3.30;82.19;98913.63;103047;1251;1002412;-65
2023/12/01 06:08:40;;;;;;;98.20;49.30;;;;;;;-3.20;81.70;98917.39;104009;1250;97801;-65
2023/12/01 06:11:08;;;;;;;87.10;48.20;;;;;;;-3.20;81.51;98919.93;103410;1251;137811;-65
2023/12/01 06:13:35;;;;;;;88.30;48.70;;;;;;;-3.19;81.74;98920.96;102945;1251;1002565;-65
2023/12/01 06:16:01;;;;;;;86.80;47.20;;;;;;;-3.19;81.64;98925.55;103409;1250;138221;-65
2023/12/01 06:18:29;;;;;;;102.00;50.00;;;;;;;-3.19;81.44;98927.59;103499;1251;107428;-66
2023/12/01 06:20:58;;;;;;;95.80;44.80;;;;;;;-3.23;81.52;98937.08;103522;1251;98473;-66
2023/12/01 06:23:25;;;;;;;83.30;43.40;;;;;;;-3.30;81.24;98942.00;102833;1254;1003540;-66
2023/12/01 06:25:52;;;;;;;93.40;41.00;;;;;;;-3.37;81.36;98953.05;103532;1251;97903;-66
2023/12/01 06:28:19;;;;;;;108.80;40.50;;;;;;;-3.44;80.95;98956.58;103808;1250;138612;-64
2023/12/01 06:30:46;;;;;;;84.10;41.80;;;;;;;-3.53;81.15;98964.03;103541;1251;107388;-66
2023/12/01 06:33:13;;;;;;;77.00;40.70;;;;;;;-3.54;81.63;98965.55;103554;1250;98408;-67
2023/12/01 06:35:40;;;;;;;97.20;44.50;;;;;;;-3.54;81.66;98963.69;103436;1251;138013;-67
2023/12/01 06:38:07;;;;;;;96.60;46.40;;;;;;;-3.55;81.69;98958.08;103588;1250;97675;-67
2023/12/01 06:40:35;;;;;;;98.00;48.00;;;;;;;-3.55;81.87;98955.54;103419;1250;137893;-67
2023/12/01 06:43:02;;;;;;;114.30;48.90;;;;;;;-3.57;81.95;98949.06;103601;1250;106250;-66
2023/12/01 06:45:29;;;;;;;107.00;50.70;;;;;;;-3.56;81.64;98953.66;103806;1250;97797;-66
2023/12/01 06:47:58;;;;;;;111.50;49.00;;;;;;;-3.55;81.76;98957.40;102683;1250;1003068;-65
2023/12/01 06:50:28;;;;;;;113.70;48.60;;;;;;;-3.60;81.61;98951.27;102728;1250;1003042;-66
2023/12/01 06:52:59;;;;;;;97.50;48.50;;;;;;;-3.77;81.57;98936.59;102617;1254;1003002;-68
2023/12/01 06:55:26;;;;;;;87.20;46.90;;;;;;;-3.75;81.84;98946.63;103443;1250;108638;-66
2023/12/01 06:57:54;;;;;;;90.90;48.10;;;;;;;-3.75;81.95;98948.66;103612;1250;97794;-67
2023/12/01 07:00:30;;;;;;;83.40;44.60;;;;;;;-3.74;81.94;98953.08;103486;1250;108006;-66
2023/12/01 07:03:00;;;;;;;86.90;44.70;;;;;;;-3.77;82.27;98951.03;104323;1250;97912;-66
2023/12/01 07:05:28;;;;;;;90.50;45.40;;;;;;;-3.70;82.26;98954.10;103021;1254;1002917;-65
2023/12/01 07:07:56;;;;;;;96.20;48.00;;;;;;;-3.68;82.04;98950.55;103434;1251;107816;-67
2023/12/01 07:10:23;;;;;;;102.30;47.80;;;;;;;-3.69;81.85;98949.35;103870;1251;138568;-65
2023/12/01 07:12:50;;;;;;;121.90;46.30;;;;;;;-3.73;81.66;98949.52;103463;1251;108440;-66
2023/12/01 07:15:21;;;;;;;96.90;46.20;;;;;;;-3.78;81.58;98948.63;102780;1251;1003731;-66
2023/12/01 07:17:49;;;;;;;128.60;44.00;;;;;;;-3.83;81.58;98948.27;103595;1250;139447;-66
2023/12/01 07:20:18;;;;;;;98.00;43.30;;;;;;;-3.91;81.48;98945.36;103498;1251;108631;-67
2023/12/01 07:22:45;;;;;;;81.90;42.00;;;;;;;-3.99;81.78;98943.94;103513;1251;139061;-65
2023/12/01 07:25:21;;;;;;;82.50;41.10;;;;;;;-3.98;82.66;98941.91;103523;1250;107471;-66
2023/12/01 07:27:49;;;;;;;80.50;40.60;;;;;;;-3.94;82.61;98941.10;103465;1250;97761;-64
2023/12/01 07:30:17;;;;;;;70.20;38.20;;;;;;;-3.91;82.71;98944.17;102616;1250;1003358;-65
2023/12/01 07:32:44;;;;;;;74.20;38.70;;;;;;;-3.86;82.72;98940.79;103470;1251;108138;-65
2023/12/01 07:35:11;;;;;;;81.10;42.10;;;;;;;-3.80;82.59;98942.16;103398;1250;138348;-65
2023/12/01 07:37:38;;;;;;;83.00;43.90;;;;;;;-3.75;82.38;98945.27;103474;1251;107980;-65
2023/12/01 07:40:06;;;;;;;91.20;44.40;;;;;;;-3.71;82.44;98952.41;102622;1251;1002675;-65
2023/12/01 07:42:33;;;;;;;86.10;44.60;;;;;;;-3.66;82.21;98951.40;103775;1250;110957;-65
2023/12/01 07:45:01;;;;;;;82.60;42.90;;;;;;;-3.65;81.52;98954.46;103498;1250;108838;-65
2023/12/01 07:47:28;;;;;;;81.00;43.50;;;;;;;-3.70;81.61;98954.11;103704;1250;137953;-66
2023/12/01 07:49:55;;;;;;;82.90;44.70;;;;;;;-3.76;81.20;98957.64;102715;1250;1002778;-66
2023/12/01 07:52:22;;;;;;;96.00;43.10;;;;;;;-3.82;81.18;98959.83;103427;1250;139243;-65
2023/12/01 07:54:49;;;;;;;78.70;41.00;;;;;;;-3.90;81.03;98964.55;103491;1251;111906;-65
2023/12/01 07:57:18;;;;;;;72.50;38.30;;;;;;;-3.97;81.28;98972.65;103471;1254;107620;-64
2023/12/01 07:59:45;;;;;;;77.30;39.70;;;;;;;-3.99;81.28;98977.39;103385;1250;139197;-65
2023/12/01 08:02:11;;;;;;;72.30;37.60;;;;;;;-4.01;81.40;98975.35;103464;1254;108436;-65
2023/12/01 08:04:38;;;;;;;74.00;38.80;;;;;;;-4.04;81.53;98979.92;103375;1250;138690;-64
2023/12/01 08:07:06;;;;;;;73.70;38.10;;;;;;;-4.05;81.68;98977.70;103544;1251;111373;-65
2023/12/01 08:09:33;;;;;;;75.00;39.00;;;;;;;-4.03;81.56;98979.75;103597;1250;107241;-63
2023/12/01 08:12:00;;;;;;;76.50;40.20;;;;;;;-4.02;81.64;98981.11;101845;1250;1003018;-64
2023/12/01 08:14:27;;;;;;;79.40;41.80;;;;;;;-4.02;81.51;98982.64;102674;1250;1003716;-65
2023/12/01 08:16:54;;;;;;;88.60;48.60;;;;;;;-3.99;81.84;98987.91;104233;1253;137983;-65
2023/12/01 08:19:22;;;;;;;76.40;39.90;;;;;;;-4.00;81.41;98985.02;103383;1250;1016218;-65
2023/12/01 08:21:49;;;;;;;71.90;39.00;;;;;;;-4.03;81.30;98988.40;103430;1251;1002521;-67
2023/12/01 08:24:17;;;;;;;73.00;39.00;;;;;;;-4.02;81.16;98988.75;103425;1250;138313;-67
2023/12/01 08:26:57;;;;;;;76.70;39.00;;;;;;;-4.02;81.17;98986.72;103304;1250;1002889;-66
2023/12/01 08:29:23;;;;;;;70.90;38.70;;;;;;;-4.04;80.95;98989.77;103132;1251;1003533;-66
2023/12/01 08:31:53;;;;;;;63.20;33.40;;;;;;;-4.07;80.58;98987.02;102817;1250;1003642;-65
2023/12/01 08:34:20;;;;;;;61.50;33.10;;;;;;;-4.07;81.01;98983.30;103403;1250;139235;-65
2023/12/01 08:36:49;;;;;;;63.40;33.20;;;;;;;-4.02;80.92;98989.43;103527;1251;97799;-65
2023/12/01 08:39:16;;;;;;;61.90;34.40;;;;;;;-3.94;81.07;98993.21;103527;1252;109189;-66
2023/12/01 08:41:43;;;;;;;61.00;34.00;;;;;;;-3.86;80.76;99000.40;103721;1251;137856;-66
2023/12/01 08:44:10;;;;;;;69.10;37.20;;;;;;;-3.80;80.77;99005.34;103455;1254;111921;-65
2023/12/01 08:46:37;;;;;;;67.90;36.10;;;;;;;-3.75;80.50;99001.14;103328;1251;138116;-64
2023/12/01 08:49:04;;;;;;;66.00;35.80;;;;;;;-3.70;80.35;98998.78;104139;1250;97792;-65
2023/12/01 08:51:31;;;;;;;60.60;33.90;;;;;;;-3.69;80.07;99000.83;104173;1251;1002390;-65
2023/12/01 08:53:58;;;;;;;71.00;37.40;;;;;;;-3.66;80.03;99006.11;102696;1254;1002727;-66
2023/12/01 08:56:30;;;;;;;68.00;36.80;;;;;;;-3.63;79.75;99016.13;103574;1251;111227;-65
2023/12/01 08:58:57;;;;;;;68.80;36.90;;;;;;;-3.61;79.64;99019.53;103379;1250;137956;-65
2023/12/01 09:01:24;;;;;;;65.50;35.00;;;;;;;-3.60;79.34;99018.01;103527;1250;98417;-64
2023/12/01 09:03:51;;;;;;;69.30;37.60;;;;;;;-3.65;79.05;99015.96;103434;1251;107507;-65
2023/12/01 09:06:19;;;;;;;68.00;36.60;;;;;;;-3.72;78.80;99006.93;103352;1254;137937;-65
2023/12/01 09:08:48;;;;;;;65.90;35.80;;;;;;;-3.80;79.01;99002.79;103486;1251;110839;-66
2023/12/01 09:11:15;;;;;;;62.70;32.70;;;;;;;-3.77;79.09;99011.81;103315;1251;138504;-67
2023/12/01 09:13:43;;;;;;;65.40;35.00;;;;;;;-3.77;79.18;99017.60;103522;1250;97816;-67
2023/12/01 09:16:11;;;;;;;61.60;33.90;;;;;;;-3.75;79.21;99018.98;103362;1250;139208;-64
2023/12/01 09:18:38;;;;;;;62.60;34.40;;;;;;;-3.73;79.02;99024.08;103668;1251;98089;-65
2023/12/01 09:21:05;;;;;;;66.20;35.80;;;;;;;-3.77;78.93;99027.95;102792;1250;1003784;-64
2023/12/01 09:23:32;;;;;;;63.70;34.60;;;;;;;-3.85;78.41;99036.73;103833;1251;138149;-65
2023/12/01 09:25:59;;;;;;;61.30;34.80;;;;;;;-3.81;79.09;99039.98;103367;1256;97708;-65
2023/12/01 09:28:26;;;;;;;67.20;35.40;;;;;;;-3.78;79.11;99033.55;103424;1250;138823;-65
2023/12/01 09:30:53;;;;;;;66.80;35.70;;;;;;;-3.80;78.77;99029.80;103403;1250;97666;-67
2023/12/01 09:33:20;;;;;;;67.00;35.30;;;;;;;-3.84;78.75;99039.97;103509;1256;112714;-65
2023/12/01 09:35:47;;;;;;;66.80;36.70;;;;;;;-3.91;78.54;99046.55;103378;1254;138224;-64
2023/12/01 09:38:22;;;;;;;;;;;;;;;-4.00;78.82;99033.41;102037;1254;1015733;-65
2023/12/01 09:40:49;;;;;;;69.80;36.60;;;;;;;-4.10;78.73;99025.89;101927;1250;1003324;-65
2023/12/01 09:43:18;;;;;;;69.50;36.40;;;;;;;-4.19;79.01;99026.66;103495;1251;97896;-65
2023/12/01 09:45:46;;;;;;;63.10;32.20;;;;;;;-4.23;79.39;99035.29;103004;1255;1002963;-65
2023/12/01 09:48:15;;;;;;;60.10;31.00;;;;;;;-4.26;79.59;99037.14;101870;1251;1016056;-64
2023/12/01 09:50:42;;;;;;;61.60;31.50;;;;;;;-4.25;79.13;99035.28;102752;1255;1003991;-64
2023/12/01 09:53:11;;;;;;;63.60;31.20;;;;;;;-4.23;79.43;99029.17;103385;1250;140472;-65
2023/12/01 09:55:38;;;;;;;63.20;30.30;;;;;;;-4.21;79.57;99026.14;104063;1254;97800;-65
2023/12/01 09:58:06;;;;;;;63.70;33.10;;;;;;;-4.17;79.38;99031.77;103410;1254;138703;-66
2023/12/01 10:00:32;;;;;;;64.00;33.00;;;;;;;-4.12;79.33;99037.75;103506;1250;109056;-66
2023/12/01 10:02:59;;;;;;;66.40;33.40;;;;;;;-4.07;79.38;99034.57;103391;1250;97795;-66
2023/12/01 10:05:32;;;;;;;66.30;33.70;;;;;;;-4.02;79.48;99036.29;102471;1251;1003101;-64
2023/12/01 10:08:01;;;;;;;70.20;35.50;;;;;;;-3.95;79.47;99042.96;103489;1255;97786;-65
2023/12/01 10:10:29;;;;;;;67.10;33.90;;;;;;;-3.90;79.35;99045.89;103626;1250;1139964;-67
2023/12/01 10:13:04;;;;;;;68.00;35.60;;;;;;;-3.90;79.05;99043.68;103406;1254;106646;-72
2023/12/01 10:15:31;;;;;;;69.50;35.50;;;;;;;-3.93;79.04;99036.20;103598;1250;97792;-64
2023/12/01 10:18:11;;;;;;;68.00;35.30;;;;;;;-3.96;79.41;99028.70;101756;1254;1003631;-67
2023/12/01 10:20:58;;;;;;;76.40;36.00;;;;;;;-3.96;79.07;99035.30;103892;1256;97873;-66
2023/12/01 10:23:27;;;;;;;66.20;32.70;;;;;;;-3.97;79.26;99040.05;103087;1251;1003006;-66
2023/12/01 10:25:54;;;;;;;61.40;31.00;;;;;;;-3.97;79.38;99040.23;103345;1251;107200;-66
2023/12/01 10:28:22;;;;;;;56.70;29.90;;;;;;;-3.87;79.27;99036.56;103195;1250;138782;-66
2023/12/01 10:30:56;;;;;;;58.90;29.60;;;;;;;-3.76;79.28;99036.11;103353;1255;108017;-66
2023/12/01 10:33:23;;;;;;;63.00;32.50;;;;;;;-3.65;79.15;99041.61;103375;1255;97839;-67
2023/12/01 10:36:03;;;;;;;69.60;34.90;;;;;;;-3.61;79.23;99042.64;102573;1251;1003587;-67
2023/12/01 10:38:30;;;;;;;72.90;35.30;;;;;;;-3.61;78.99;99053.00;104916;1250;107170;-66
2023/12/01 10:40:58;;;;;;;67.50;35.50;;;;;;;-3.60;78.87;99052.84;104571;1253;137831;-66
2023/12/01 10:43:26;;;;;;;70.90;35.70;;;;;;;-3.59;79.01;99049.61;102698;1255;1016304;-66
2023/12/01 10:45:53;;;;;;;74.00;37.30;;;;;;;-3.61;78.93;99042.30;103477;1251;97893;-67
2023/12/01 10:48:22;;;;;;;74.60;36.70;;;;;;;-3.64;78.65;99039.40;101768;1251;1003068;-66
2023/12/01 10:50:52;;;;;;;77.50;38.60;;;;;;;-3.69;78.74;99039.21;103518;1251;108295;-66
2023/12/01 10:53:20;;;;;;;77.50;40.40;;;;;;;-3.75;78.37;99041.39;103367;1250;138573;-66
2023/12/01 10:55:48;;;;;;;73.40;36.90;;;;;;;-3.84;78.56;99040.13;102777;1251;1003712;-72
2023/12/01 10:58:21;;;;;;;77.60;37.30;;;;;;;-3.86;78.78;99040.63;103254;1250;138962;-67
2023/12/01 11:00:49;;;;;;;72.20;35.80;;;;;;;-3.87;78.66;99039.11;102719;1250;1003094;-67
2023/12/01 11:03:22;;;;;;;70.90;34.30;;;;;;;-3.89;78.71;99043.35;102727;1251;1003364;-66